Terminal Aerodrome Forecast
Issued by NWS Cleveland, OH

Home | Current Version | Previous Version | Graphics & Text | Print | Product List | Glossary Off
Versions: 1 2 3 4 5 6 7 8 9 10 11 12 13 14 15 16 17 18 19 20 21 22 23 24 25 26 27 28 29 30 31

000
FTUS41 KCLE 040231 AAB
TAFCLE
TAF AMD
KCLE 040231Z 0403/0506 28012KT P6SM TS SCT035CB OVC100
      TEMPO 0403/0406 28012G25KT 3SM TSRA BR OVC035CB
     FM040600 18003KT P6SM BKN250
      TEMPO 0409/0413 5SM BR
     FM041400 18006KT P6SM SCT250
     FM041800 18008KT P6SM VCTS BKN045CB
     FM042000 04006KT P6SM VCTS BKN045CB
     FM050100 VRB03KT P6SM BKN120=

USA.gov is the U.S. government's official web portal to all federal, state and local government web resources and services.